Home > Products > Valid Products > TAF

000
FTUS43 KDVN 201700
TAFBRL
TAF
KBRL 201730Z 2018/2118 21012G16KT P6SM SCT110 BKN250
     FM210000 18008KT P6SM SCT110 BKN250
     FM211100 22005KT 5SM BR VCSH FEW050 BKN080
     FM211500 25007KT 6SM BR VCSH BKN040=



000
FTUS43 KDVN 201700
TAFCID
TAF
KCID 201730Z 2018/2118 20013G17KT P6SM SCT080 SCT250
     FM210000 19008KT P6SM BKN100
     FM210800 22007KT 6SM BR VCSH SCT040 OVC070
     FM211500 28009KT 5SM BR VCSH OVC035
      TEMPO 2115/2118 4SM -SHRA BR BKN025=



000
FTUS43 KDVN 201700
TAFMLI
TAF
KMLI 201730Z 2018/2118 21012G16KT P6SM SCT110 BKN250
     FM210000 19008KT P6SM SCT100 BKN250
     FM211100 22005KT 5SM BR VCSH FEW050 BKN080
     FM211500 25008KT 6SM BR VCSH BKN040=



000
FTUS43 KDVN 201700
TAFDBQ
TAF
KDBQ 201730Z 2018/2118 20013G17KT P6SM SCT080 SCT250
     FM210000 19009KT P6SM BKN080
     FM210900 22007KT P6SM VCSH SCT040 OVC070
     FM211500 26008KT 5SM BR VCSH OVC035
      TEMPO 2115/2118 4SM -SHRA BR BKN025=



000
FTUS43 KDVN 201100
TAFDBQ
TAF
KDBQ 201120Z 2012/2112 17010KT P6SM BKN110 OVC250
     FM201600 20013KT P6SM BKN110 OVC250
     FM210000 19008KT P6SM BKN100 OVC250
     FM210600 19007KT 6SM BR VCSH SCT040 OVC070=



000
FTUS43 KDVN 201100
TAFCID
TAF
KCID 201120Z 2012/2112 18010KT P6SM SCT110 OVC250
     FM201600 20013G17KT P6SM BKN100 OVC250
     FM210000 19008KT P6SM BKN100 OVC250
     FM210600 19007KT 6SM BR VCSH SCT040 OVC070=



000
FTUS43 KDVN 201100
TAFMLI
TAF
KMLI 201120Z 2012/2112 18008KT P6SM SCT110 BKN250
     FM201600 20012G15KT P6SM SCT110 OVC250
     FM210000 19008KT P6SM SCT110 OVC250
     FM210600 19007KT 6SM BR FEW050 OVC080=



000
FTUS43 KDVN 201100
TAFBRL
TAF
KBRL 201120Z 2012/2112 18011KT P6SM SCT110 BKN250
     FM201700 19012G16KT P6SM SCT110 OVC250
     FM210000 19008KT P6SM SCT110 OVC250
     FM210600 20006KT 6SM BR FEW050 OVC080=



000
FTUS43 KDVN 200900 AAA
TAFBRL
TAF AMD
KBRL 200957Z 2010/2106 18010KT P6SM BKN250
     FM201600 21010G16KT P6SM BKN100
     FM210000 19006KT P6SM BKN120=



000
FTUS43 KDVN 200500
TAFCID
TAF
KCID 200520Z 2006/2106 16011KT P6SM SCT100 BKN250
     FM201300 20010G16KT P6SM BKN100
     FM202300 18008KT P6SM BKN080=



000
FTUS43 KDVN 200500
TAFMLI
TAF
KMLI 200520Z 2006/2106 15008KT P6SM BKN250
     FM201600 21010G16KT P6SM BKN100
     FM210000 19006KT P6SM BKN120=



000
FTUS43 KDVN 200500
TAFBRL
TAF
KBRL 200520Z 2006/2106 16008KT P6SM BKN250
     FM201600 21010G16KT P6SM BKN100
     FM210000 19006KT P6SM BKN120=



000
FTUS43 KDVN 200500
TAFDBQ
TAF
KDBQ 200520Z 2006/2106 16011KT P6SM SCT100 BKN250
     FM201300 20010G16KT P6SM BKN100
     FM202300 18008KT P6SM BKN080=



000
FTUS43 KDVN 192300
TAFMLI
TAF
KMLI 192320Z 2000/2024 15011KT P6SM BKN250
     FM201600 19010G16KT P6SM SCT050 BKN100=



000
FTUS43 KDVN 192300
TAFDBQ
TAF
KDBQ 192320Z 2000/2024 16011KT P6SM BKN250
     FM201300 19010G16KT P6SM BKN100
     FM201900 21013KT P6SM SCT050 BKN100=



000
FTUS43 KDVN 192300
TAFBRL
TAF
KBRL 192320Z 2000/2024 16010KT P6SM BKN250
     FM201600 19010G16KT P6SM SCT050 BKN100=



000
FTUS43 KDVN 192300
TAFCID
TAF
KCID 192320Z 2000/2024 16011KT P6SM BKN250
     FM201300 19010G16KT P6SM BKN100
     FM201900 21014KT P6SM SCT050 BKN100=



000
FTUS43 KDVN 192000 AAA
TAFBRL
TAF AMD
KBRL 192039Z 1921/2018 17010G18KT P6SM SCT250
     FM200000 16010KT P6SM BKN250
     FM201300 19010G16KT P6SM BKN100=



000
FTUS43 KDVN 191700
TAFBRL
TAF
KBRL 191720Z 1918/2018 16010G18KT P6SM SCT250
     FM200000 16010KT P6SM BKN250
     FM201300 19010G16KT P6SM BKN100=



000
FTUS43 KDVN 191700
TAFCID
TAF
KCID 191720Z 1918/2018 16015G23KT P6SM SCT250
     FM200000 16011KT P6SM FEW100 BKN250
     FM201300 19010G16KT P6SM BKN100=



000
FTUS43 KDVN 191700
TAFDBQ
TAF
KDBQ 191720Z 1918/2018 16014G21KT P6SM SCT250
     FM200000 16011KT P6SM FEW100 BKN250
     FM201300 19010G16KT P6SM BKN100=



000
FTUS43 KDVN 191700
TAFMLI
TAF
KMLI 191720Z 1918/2018 16010G18KT P6SM SCT250
     FM200000 15011KT P6SM FEW100 BKN250
     FM201300 19010G16KT P6SM BKN100=



000
FTUS43 KDVN 191100
TAFCID
TAF
KCID 191120Z 1912/2012 13012KT P6SM BKN250
     FM191500 16017G23KT P6SM SCT250
     FM200000 16011KT P6SM FEW100 BKN250=



000
FTUS43 KDVN 191100
TAFBRL
TAF
KBRL 191120Z 1912/2012 13011KT P6SM BKN250
     FM191500 16013G17KT P6SM SCT250
     FM200000 16009KT P6SM BKN250=



000
FTUS43 KDVN 191100
TAFMLI
TAF
KMLI 191120Z 1912/2012 11006KT P6SM BKN250
     FM191500 14012KT P6SM SCT250
     FM191800 16014G19KT P6SM SCT250
     FM200000 16009KT P6SM BKN250=



000
FTUS43 KDVN 191100
TAFDBQ
TAF
KDBQ 191120Z 1912/2012 11011KT P6SM BKN250
     FM191500 15015G21KT P6SM SCT250
     FM200000 17011KT P6SM BKN250=



000
FTUS43 KDVN 190800 AAA
TAFCID
TAF AMD
KCID 190858Z 1909/2006 13013KT P6SM SCT250
     FM191500 17015G23KT P6SM SCT250
     FM200000 16012KT P6SM SCT080 BKN250=



000
FTUS43 KDVN 190500
TAFMLI
TAF
KMLI 190520Z 1906/2006 10006KT P6SM SCT250
     FM191600 16013KT P6SM SCT250=



000
FTUS43 KDVN 190500
TAFCID
TAF
KCID 190520Z 1906/2006 13007KT P6SM SCT250
     FM191500 17015G23KT P6SM SCT250
     FM200000 16012KT P6SM SCT080 BKN250=



000
FTUS43 KDVN 190500
TAFDBQ
TAF
KDBQ 190520Z 1906/2006 12008KT P6SM SCT250
     FM191600 17014G21KT P6SM SCT250
     FM200000 16012KT P6SM BKN250=



000
FTUS43 KDVN 190500
TAFBRL
TAF
KBRL 190520Z 1906/2006 10005KT P6SM SCT250
     FM191600 17012KT P6SM SCT250=



000
FTUS43 KDVN 182300
TAFDBQ
TAF
KDBQ 182320Z 1900/1924 09007KT P6SM SKC
     FM190200 12006KT P6SM SCT250
     FM191600 17014G21KT P6SM SCT250=



000
FTUS43 KDVN 182300
TAFMLI
TAF
KMLI 182320Z 1900/1924 07006KT P6SM SKC
     FM190200 10006KT P6SM SCT250
     FM191600 16013KT P6SM SCT250=



000
FTUS43 KDVN 182300
TAFCID
TAF
KCID 182320Z 1900/1924 13007KT P6SM SCT250
     FM191500 17015G23KT P6SM SCT250=



000
FTUS43 KDVN 182300
TAFBRL
TAF
KBRL 182320Z 1900/1924 10005KT P6SM SCT250
     FM191600 17012KT P6SM SCT250=



000
FTUS43 KDVN 181700
TAFBRL
TAF
KBRL 181720Z 1818/1918 VRB03KT P6SM SKC
     FM182300 10005KT P6SM SCT250
     FM191600 17012KT P6SM SCT250=



000
FTUS43 KDVN 181700
TAFMLI
TAF
KMLI 181720Z 1818/1918 VRB03KT P6SM SKC
     FM182100 07006KT P6SM SKC
     FM190200 10006KT P6SM SCT250
     FM191600 15013KT P6SM SCT250=



000
FTUS43 KDVN 181700
TAFCID
TAF
KCID 181720Z 1818/1918 08004KT P6SM SKC
     FM190000 11007KT P6SM SCT250
     FM191500 17015G23KT P6SM SCT250=



000
FTUS43 KDVN 181700
TAFDBQ
TAF
KDBQ 181720Z 1818/1918 36004KT P6SM SKC
     FM182000 07007KT P6SM SKC
     FM190200 11006KT P6SM SCT250
     FM191600 17014G21KT P6SM SCT250=



000
FTUS43 KDVN 181200 AAA
TAFCID
TAF AMD
KCID 181202Z 1812/1912 35003KT 6SM BR SCT250
     FM181300 02003KT 6SM HZ SCT250
     FM181500 09007KT P6SM FEW100 SCT250
     FM190000 11007KT P6SM SCT250=



000
FTUS43 KDVN 181200 AAA
TAFMLI
TAF AMD
KMLI 181200Z 1812/1912 VRB03KT 6SM BR SCT250
      TEMPO 1812/1813 4SM BR
     FM181500 06006KT P6SM SCT250
     FM182000 08007KT P6SM FEW100 SCT250
     FM190200 10007KT P6SM SCT250=



000
FTUS43 KDVN 181200 AAA
TAFBRL
TAF AMD
KBRL 181200Z 1812/1912 03004KT P6SM FEW250
      TEMPO 1812/1813 5SM BR
     FM181800 06006KT P6SM FEW100 SCT250
     FM190000 10006KT P6SM SCT250=



000
FTUS43 KDVN 181100 AAA
TAFDBQ
TAF AMD
KDBQ 181159Z 1812/1912 02005KT 6SM BR SCT250
      TEMPO 1812/1813 5SM BR
     FM181500 06006KT P6SM SCT250
     FM182000 09007KT P6SM FEW100 SCT250
     FM190200 11008KT P6SM SCT250=



000
FTUS43 KDVN 181100
TAFMLI
TAF
KMLI 181120Z 1812/1912 VRB03KT 6SM BR SCT250
     FM181500 06006KT P6SM SCT250
     FM182000 08007KT P6SM FEW100 SCT250
     FM190200 10007KT P6SM SCT250=



000
FTUS43 KDVN 181100
TAFDBQ
TAF
KDBQ 181120Z 1812/1912 02005KT 6SM BR SCT250
     FM181500 06006KT P6SM SCT250
     FM182000 09007KT P6SM FEW100 SCT250
     FM190200 11008KT P6SM SCT250=



000
FTUS43 KDVN 181100
TAFBRL
TAF
KBRL 181120Z 1812/1912 03004KT P6SM FEW250
     FM181800 06006KT P6SM FEW100 SCT250
     FM190000 10006KT P6SM SCT250=



000
FTUS43 KDVN 181100
TAFCID
TAF
KCID 181120Z 1812/1912 35003KT 5SM HZ SCT250
     FM181300 02003KT 6SM HZ SCT250
     FM181500 09007KT P6SM FEW100 SCT250
     FM190000 11007KT P6SM SCT250=



000
FTUS43 KDVN 181000 AAB
TAFCID
TAF AMD
KCID 181000Z 1810/1906 02003KT 6SM HZ SCT100 SCT250
     FM181200 08007KT P6SM SKC
     FM181800 13008KT P6SM SKC=



000
FTUS43 KDVN 180900 AAA
TAFCID
TAF AMD
KCID 180900Z 1809/1906 02006KT 5SM HZ SCT100 SCT250
     FM181200 08007KT P6SM SKC
     FM181800 13008KT P6SM SKC=



000
FTUS43 KDVN 180500
TAFDBQ
TAF
KDBQ 180520Z 1806/1906 36006KT P6SM SCT100 SCT250
     FM181200 05006KT P6SM SKC
     FM182000 12008KT P6SM SKC=



000
FTUS43 KDVN 180500
TAFMLI
TAF
KMLI 180520Z 1806/1906 30003KT P6SM SCT250
     FM181200 05005KT P6SM SKC
     FM182000 12006KT P6SM SKC=



000
FTUS43 KDVN 180500
TAFBRL
TAF
KBRL 180520Z 1806/1906 VRB03KT P6SM SCT250
     FM181200 06004KT P6SM SKC
     FM181800 13006KT P6SM SKC=



000
FTUS43 KDVN 180500
TAFCID
TAF
KCID 180520Z 1806/1906 02006KT P6SM SCT100 SCT250
     FM181200 08007KT P6SM SKC
     FM181800 13008KT P6SM SKC=



000
FTUS43 KDVN 172300
TAFBRL
TAF
KBRL 172320Z 1800/1824 23006KT P6SM BKN250
     FM180600 VRB03KT P6SM SCT150
     FM181200 06004KT P6SM SKC
     FM181800 16006KT P6SM SKC=



000
FTUS43 KDVN 172300
TAFCID
TAF
KCID 172320Z 1800/1824 33004KT P6SM SCT250
     FM181200 08007KT P6SM SKC
     FM181800 13008KT P6SM SKC=



000
FTUS43 KDVN 172300
TAFDBQ
TAF
KDBQ 172320Z 1800/1824 34004KT P6SM SCT250
     FM181200 05006KT P6SM SKC
     FM182000 12008KT P6SM SKC=



000
FTUS43 KDVN 172300
TAFMLI
TAF
KMLI 172320Z 1800/1824 29008KT P6SM BKN250
     FM180300 VRB03KT P6SM SCT250
     FM181200 05005KT P6SM SKC
     FM182000 12006KT P6SM SKC=



    US Dept of Commerce
    National Oceanic and Atmospheric Administration
    National Weather Service
    1325 East West Highway
    Silver Spring, MD 20910
    Page Author: NWS Internet Services Team
Disclaimer
Information Quality
Credits
Glossary
Privacy Policy
Freedom of Information Act (FOIA)
About Us
Career Opportunities